sensor_id;sensor_type;location;lat;lon;timestamp;temperature;humidity
69628;DHT22;56850;51.984;5.088;2023-03-23T06:43:04;13.20;75.00
69628;DHT22;56850;51.984;5.088;2023-03-23T06:45:59;13.20;75.30
69628;DHT22;56850;51.984;5.088;2023-03-23T06:48:58;13.20;75.50
69628;DHT22;56850;51.984;5.088;2023-03-23T06:51:34;13.20;75.50
69628;DHT22;56850;51.984;5.088;2023-03-23T06:54:01;13.20;75.60
69628;DHT22;56850;51.984;5.088;2023-03-23T06:56:31;13.20;75.60
69628;DHT22;56850;51.984;5.088;2023-03-23T06:58:57;13.20;75.40
69628;DHT22;56850;51.984;5.088;2023-03-23T07:01:24;13.20;75.30
69628;DHT22;56850;51.984;5.088;2023-03-23T07:03:56;13.30;75.00
69628;DHT22;56850;51.984;5.088;2023-03-23T07:06:33;13.30;74.70
69628;DHT22;56850;51.984;5.088;2023-03-23T07:09:00;13.30;74.70
69628;DHT22;56850;51.984;5.088;2023-03-23T07:11:27;13.30;74.50
69628;DHT22;56850;51.984;5.088;2023-03-23T07:13:55;13.30;74.30
69628;DHT22;56850;51.984;5.088;2023-03-23T07:16:22;13.30;74.00
69628;DHT22;56850;51.984;5.088;2023-03-23T07:18:50;13.30;74.00
69628;DHT22;56850;51.984;5.088;2023-03-23T07:21:17;13.20;74.10
69628;DHT22;56850;51.984;5.088;2023-03-23T07:23:43;13.20;74.50
69628;DHT22;56850;51.984;5.088;2023-03-23T07:26:16;13.30;74.40
69628;DHT22;56850;51.984;5.088;2023-03-23T07:28:48;13.30;74.50
69628;DHT22;56850;51.984;5.088;2023-03-23T07:31:32;13.40;74.50
69628;DHT22;56850;51.984;5.088;2023-03-23T07:33:58;13.40;74.70
69628;DHT22;56850;51.984;5.088;2023-03-23T07:36:34;13.40;75.00
69628;DHT22;56850;51.984;5.088;2023-03-23T07:39:05;13.40;75.00
69628;DHT22;56850;51.984;5.088;2023-03-23T07:41:34;13.40;75.00
69628;DHT22;56850;51.984;5.088;2023-03-23T07:44:11;13.40;75.10
69628;DHT22;56850;51.984;5.088;2023-03-23T07:46:36;13.40;75.20
69628;DHT22;56850;51.984;5.088;2023-03-23T07:49:10;13.30;75.40
69628;DHT22;56850;51.984;5.088;2023-03-23T07:51:41;13.30;75.60
69628;DHT22;56850;51.984;5.088;2023-03-23T07:54:10;13.30;75.80
69628;DHT22;56850;51.984;5.088;2023-03-23T07:57:03;13.30;75.60
69628;DHT22;56850;51.984;5.088;2023-03-23T07:59:32;13.30;75.70
69628;DHT22;56850;51.984;5.088;2023-03-23T08:01:59;13.30;75.80
69628;DHT22;56850;51.984;5.088;2023-03-23T08:04:48;13.30;75.60
69628;DHT22;56850;51.984;5.088;2023-03-23T08:07:44;13.30;75.50
69628;DHT22;56850;51.984;5.088;2023-03-23T08:10:40;13.20;75.50
69628;DHT22;56850;51.984;5.088;2023-03-23T08:13:18;13.20;75.70
69628;DHT22;56850;51.984;5.088;2023-03-23T08:15:53;13.20;75.60
69628;DHT22;56850;51.984;5.088;2023-03-23T08:18:38;13.20;75.70
69628;DHT22;56850;51.984;5.088;2023-03-23T08:21:24;13.30;75.70
69628;DHT22;56850;51.984;5.088;2023-03-23T08:24:09;13.30;75.70
69628;DHT22;56850;51.984;5.088;2023-03-23T08:27:03;13.30;75.70
69628;DHT22;56850;51.984;5.088;2023-03-23T08:29:47;13.30;75.30
69628;DHT22;56850;51.984;5.088;2023-03-23T08:32:43;13.30;75.60
69628;DHT22;56850;51.984;5.088;2023-03-23T08:35:22;13.50;75.80
69628;DHT22;56850;51.984;5.088;2023-03-23T08:38:04;13.60;75.40
69628;DHT22;56850;51.984;5.088;2023-03-23T08:40:48;13.60;75.10
69628;DHT22;56850;51.984;5.088;2023-03-23T08:43:45;13.60;74.80
69628;DHT22;56850;51.984;5.088;2023-03-23T08:46:30;13.70;74.80
69628;DHT22;56850;51.984;5.088;2023-03-23T08:49:12;13.70;74.60
69628;DHT22;56850;51.984;5.088;2023-03-23T08:52:05;13.70;74.20
69628;DHT22;56850;51.984;5.088;2023-03-23T08:54:49;13.70;74.30
69628;DHT22;56850;51.984;5.088;2023-03-23T08:57:38;13.80;74.10
69628;DHT22;56850;51.984;5.088;2023-03-23T09:00:27;13.80;74.20
69628;DHT22;56850;51.984;5.088;2023-03-23T09:03:01;13.90;74.00
69628;DHT22;56850;51.984;5.088;2023-03-23T09:05:35;13.90;73.60
69628;DHT22;56850;51.984;5.088;2023-03-23T09:08:15;13.90;73.70
69628;DHT22;56850;51.984;5.088;2023-03-23T09:10:41;14.00;73.70
69628;DHT22;56850;51.984;5.088;2023-03-23T09:13:07;14.10;72.80
69628;DHT22;56850;51.984;5.088;2023-03-23T09:15:32;14.10;72.40
69628;DHT22;56850;51.984;5.088;2023-03-23T09:17:59;14.10;72.20
69628;DHT22;56850;51.984;5.088;2023-03-23T09:20:27;14.10;72.00
69628;DHT22;56850;51.984;5.088;2023-03-23T09:22:55;14.20;72.30
69628;DHT22;56850;51.984;5.088;2023-03-23T09:25:26;14.30;71.60
69628;DHT22;56850;51.984;5.088;2023-03-23T09:27:55;14.40;71.10
69628;DHT22;56850;51.984;5.088;2023-03-23T09:30:27;14.50;70.50
69628;DHT22;56850;51.984;5.088;2023-03-23T09:32:54;14.50;70.40
69628;DHT22;56850;51.984;5.088;2023-03-23T09:35:20;14.70;70.00
69628;DHT22;56850;51.984;5.088;2023-03-23T09:37:51;14.70;69.20
69628;DHT22;56850;51.984;5.088;2023-03-23T09:43:17;14.80;69.20
69628;DHT22;56850;51.984;5.088;2023-03-23T09:46:17;14.90;68.40
69628;DHT22;56850;51.984;5.088;2023-03-23T09:48:54;14.90;67.40
69628;DHT22;56850;51.984;5.088;2023-03-23T09:54:00;15.00;67.10
69628;DHT22;56850;51.984;5.088;2023-03-23T09:56:30;15.00;66.60
69628;DHT22;56850;51.984;5.088;2023-03-23T09:59:19;15.00;67.10
69628;DHT22;56850;51.984;5.088;2023-03-23T10:01:51;15.10;67.20
69628;DHT22;56850;51.984;5.088;2023-03-23T10:04:37;15.10;67.00
69628;DHT22;56850;51.984;5.088;2023-03-23T10:07:22;15.20;66.70
69628;DHT22;56850;51.984;5.088;2023-03-23T10:09:56;15.30;66.70
69628;DHT22;56850;51.984;5.088;2023-03-23T10:15:12;15.30;66.30
69628;DHT22;56850;51.984;5.088;2023-03-23T10:18:12;15.30;65.90
69628;DHT22;56850;51.984;5.088;2023-03-23T10:26:04;15.40;64.80
69628;DHT22;56850;51.984;5.088;2023-03-23T10:28:38;15.40;63.80
69628;DHT22;56850;51.984;5.088;2023-03-23T10:31:11;15.30;63.60
69628;DHT22;56850;51.984;5.088;2023-03-23T10:33:47;15.30;63.60
69628;DHT22;56850;51.984;5.088;2023-03-23T10:36:30;15.30;63.60
69628;DHT22;56850;51.984;5.088;2023-03-23T10:41:30;15.70;62.50
69628;DHT22;56850;51.984;5.088;2023-03-23T10:43:56;15.80;61.80
69628;DHT22;56850;51.984;5.088;2023-03-23T10:48:57;15.90;61.80
69628;DHT22;56850;51.984;5.088;2023-03-23T10:51:33;15.90;62.00
69628;DHT22;56850;51.984;5.088;2023-03-23T10:54:04;16.00;61.70
69628;DHT22;56850;51.984;5.088;2023-03-23T10:56:42;16.30;61.20
69628;DHT22;56850;51.984;5.088;2023-03-23T10:59:18;16.40;60.20
69628;DHT22;56850;51.984;5.088;2023-03-23T11:01:50;16.40;59.70
69628;DHT22;56850;51.984;5.088;2023-03-23T11:04:17;16.30;59.80
69628;DHT22;56850;51.984;5.088;2023-03-23T11:06:58;16.10;58.90
69628;DHT22;56850;51.984;5.088;2023-03-23T11:09:52;15.90;59.60
69628;DHT22;56850;51.984;5.088;2023-03-23T11:12:20;16.10;59.70
69628;DHT22;56850;51.984;5.088;2023-03-23T11:14:46;16.30;59.60
69628;DHT22;56850;51.984;5.088;2023-03-23T11:17:26;16.50;59.40
69628;DHT22;56850;51.984;5.088;2023-03-23T11:19:53;16.80;59.30
69628;DHT22;56850;51.984;5.088;2023-03-23T11:22:26;16.80;58.60
69628;DHT22;56850;51.984;5.088;2023-03-23T11:25:00;16.60;59.00
69628;DHT22;56850;51.984;5.088;2023-03-23T11:27:27;16.40;59.80
69628;DHT22;56850;51.984;5.088;2023-03-23T11:29:55;16.30;59.60
69628;DHT22;56850;51.984;5.088;2023-03-23T11:32:27;16.20;59.90
69628;DHT22;56850;51.984;5.088;2023-03-23T11:35:02;16.10;59.80
69628;DHT22;56850;51.984;5.088;2023-03-23T11:37:39;16.00;59.90
69628;DHT22;56850;51.984;5.088;2023-03-23T11:48:01;15.60;63.30
69628;DHT22;56850;51.984;5.088;2023-03-23T11:50:52;15.50;64.00
69628;DHT22;56850;51.984;5.088;2023-03-23T11:56:19;15.70;64.90
69628;DHT22;56850;51.984;5.088;2023-03-23T11:58:47;15.90;65.20
69628;DHT22;56850;51.984;5.088;2023-03-23T12:06:45;15.90;62.60
69628;DHT22;56850;51.984;5.088;2023-03-23T12:15:05;15.70;63.30
69628;DHT22;56850;51.984;5.088;2023-03-23T12:28:29;16.80;60.20
69628;DHT22;56850;51.984;5.088;2023-03-23T12:34:18;17.00;58.50
69628;DHT22;56850;51.984;5.088;2023-03-23T12:37:16;17.00;58.30
69628;DHT22;56850;51.984;5.088;2023-03-23T12:39:54;17.00;59.00
69628;DHT22;56850;51.984;5.088;2023-03-23T12:47:58;16.90;58.60
69628;DHT22;56850;51.984;5.088;2023-03-23T12:50:31;16.80;58.90
69628;DHT22;56850;51.984;5.088;2023-03-23T12:55:43;16.50;58.60
69628;DHT22;56850;51.984;5.088;2023-03-23T12:58:29;16.40;58.30
69628;DHT22;56850;51.984;5.088;2023-03-23T13:03:59;16.20;58.80
69628;DHT22;56850;51.984;5.088;2023-03-23T13:06:41;16.20;58.90
69628;DHT22;56850;51.984;5.088;2023-03-23T13:09:46;16.20;59.00
69628;DHT22;56850;51.984;5.088;2023-03-23T13:12:14;16.10;59.40
69628;DHT22;56850;51.984;5.088;2023-03-23T13:14:56;16.10;59.90
69628;DHT22;56850;51.984;5.088;2023-03-23T13:17:49;16.10;60.50
69628;DHT22;56850;51.984;5.088;2023-03-23T13:28:18;16.20;61.00
69628;DHT22;56850;51.984;5.088;2023-03-23T13:31:00;16.20;60.80
69628;DHT22;56850;51.984;5.088;2023-03-23T13:33:32;16.10;60.90
69628;DHT22;56850;51.984;5.088;2023-03-23T13:36:12;16.10;60.90
69628;DHT22;56850;51.984;5.088;2023-03-23T13:38:45;16.10;60.80
69628;DHT22;56850;51.984;5.088;2023-03-23T13:41:14;16.00;60.90
69628;DHT22;56850;51.984;5.088;2023-03-23T13:43:42;16.00;61.30
69628;DHT22;56850;51.984;5.088;2023-03-23T13:52:14;16.00;62.10
69628;DHT22;56850;51.984;5.088;2023-03-23T13:54:44;15.90;62.80
69628;DHT22;56850;51.984;5.088;2023-03-23T13:57:48;15.80;64.00
69628;DHT22;56850;51.984;5.088;2023-03-23T14:08:13;16.30;65.00
69628;DHT22;56850;51.984;5.088;2023-03-23T14:13:25;16.70;64.10
69628;DHT22;56850;51.984;5.088;2023-03-23T14:15:57;16.80;64.00
69628;DHT22;56850;51.984;5.088;2023-03-23T14:18:27;17.00;63.20
69628;DHT22;56850;51.984;5.088;2023-03-23T14:20:55;17.20;61.40
69628;DHT22;56850;51.984;5.088;2023-03-23T14:23:22;17.10;61.10
69628;DHT22;56850;51.984;5.088;2023-03-23T14:26:12;17.20;60.50
69628;DHT22;56850;51.984;5.088;2023-03-23T14:28:43;17.40;59.10
69628;DHT22;56850;51.984;5.088;2023-03-23T14:31:25;17.40;58.80
69628;DHT22;56850;51.984;5.088;2023-03-23T14:33:54;17.40;59.00
69628;DHT22;56850;51.984;5.088;2023-03-23T14:36:22;17.40;58.70
69628;DHT22;56850;51.984;5.088;2023-03-23T14:41:32;17.50;58.40
69628;DHT22;56850;51.984;5.088;2023-03-23T14:44:01;17.60;58.10
69628;DHT22;56850;51.984;5.088;2023-03-23T14:46:30;17.70;58.00
69628;DHT22;56850;51.984;5.088;2023-03-23T14:49:00;17.90;57.90
69628;DHT22;56850;51.984;5.088;2023-03-23T14:51:26;18.00;57.10
69628;DHT22;56850;51.984;5.088;2023-03-23T14:53:53;18.10;56.40
69628;DHT22;56850;51.984;5.088;2023-03-23T14:56:22;18.10;55.80
69628;DHT22;56850;51.984;5.088;2023-03-23T14:58:52;18.10;55.60
69628;DHT22;56850;51.984;5.088;2023-03-23T15:01:25;18.20;55.70
69628;DHT22;56850;51.984;5.088;2023-03-23T15:04:22;18.30;55.70
69628;DHT22;56850;51.984;5.088;2023-03-23T15:06:54;18.10;55.80
69628;DHT22;56850;51.984;5.088;2023-03-23T15:09:23;18.00;56.40
69628;DHT22;56850;51.984;5.088;2023-03-23T15:11:58;17.90;56.50
69628;DHT22;56850;51.984;5.088;2023-03-23T15:14:29;17.70;56.60
69628;DHT22;56850;51.984;5.088;2023-03-23T15:16:57;17.70;56.80
69628;DHT22;56850;51.984;5.088;2023-03-23T15:19:39;17.60;57.20
69628;DHT22;56850;51.984;5.088;2023-03-23T15:22:20;17.70;57.30
69628;DHT22;56850;51.984;5.088;2023-03-23T15:24:46;17.90;56.90
69628;DHT22;56850;51.984;5.088;2023-03-23T15:27:27;18.00;56.70
69628;DHT22;56850;51.984;5.088;2023-03-23T15:29:58;18.10;56.30
69628;DHT22;56850;51.984;5.088;2023-03-23T15:32:31;18.00;56.10
69628;DHT22;56850;51.984;5.088;2023-03-23T15:35:09;18.00;56.10
69628;DHT22;56850;51.984;5.088;2023-03-23T15:37:42;18.00;55.70
69628;DHT22;56850;51.984;5.088;2023-03-23T15:40:20;18.00;55.70
69628;DHT22;56850;51.984;5.088;2023-03-23T15:42:48;18.00;55.70
69628;DHT22;56850;51.984;5.088;2023-03-23T15:52:37;17.80;56.30
69628;DHT22;56850;51.984;5.088;2023-03-23T15:57:42;17.80;56.50
69628;DHT22;56850;51.984;5.088;2023-03-23T16:00:09;17.70;56.80
69628;DHT22;56850;51.984;5.088;2023-03-23T16:02:37;17.60;57.00
69628;DHT22;56850;51.984;5.088;2023-03-23T16:05:04;17.60;57.20
69628;DHT22;56850;51.984;5.088;2023-03-23T16:07:32;17.50;57.50
69628;DHT22;56850;51.984;5.088;2023-03-23T16:09:59;17.50;57.90
69628;DHT22;56850;51.984;5.088;2023-03-23T16:12:26;17.50;58.10
69628;DHT22;56850;51.984;5.088;2023-03-23T16:14:53;17.50;58.30
69628;DHT22;56850;51.984;5.088;2023-03-23T16:17:20;17.50;58.30
69628;DHT22;56850;51.984;5.088;2023-03-23T16:19:47;17.50;58.50
69628;DHT22;56850;51.984;5.088;2023-03-23T16:22:15;17.50;58.50
69628;DHT22;56850;51.984;5.088;2023-03-23T16:24:44;17.50;58.50
69628;DHT22;56850;51.984;5.088;2023-03-23T16:27:12;17.40;58.20
69628;DHT22;56850;51.984;5.088;2023-03-23T16:29:39;17.30;58.40
69628;DHT22;56850;51.984;5.088;2023-03-23T16:32:26;17.20;58.40
69628;DHT22;56850;51.984;5.088;2023-03-23T16:34:53;17.10;58.70
69628;DHT22;56850;51.984;5.088;2023-03-23T16:37:20;17.20;58.80
69628;DHT22;56850;51.984;5.088;2023-03-23T16:39:47;17.20;58.90
69628;DHT22;56850;51.984;5.088;2023-03-23T16:42:14;17.20;59.00
69628;DHT22;56850;51.984;5.088;2023-03-23T16:44:41;17.20;59.00
69628;DHT22;56850;51.984;5.088;2023-03-23T16:47:08;17.10;58.80
69628;DHT22;56850;51.984;5.088;2023-03-23T16:49:34;17.10;58.70
69628;DHT22;56850;51.984;5.088;2023-03-23T16:52:02;17.10;58.40
69628;DHT22;56850;51.984;5.088;2023-03-23T16:54:29;17.00;58.30
69628;DHT22;56850;51.984;5.088;2023-03-23T16:56:56;17.00;58.00
69628;DHT22;56850;51.984;5.088;2023-03-23T16:59:27;17.00;58.10
69628;DHT22;56850;51.984;5.088;2023-03-23T17:01:53;17.00;58.30
69628;DHT22;56850;51.984;5.088;2023-03-23T17:04:21;17.00;58.40
69628;DHT22;56850;51.984;5.088;2023-03-23T17:06:48;17.00;58.40
69628;DHT22;56850;51.984;5.088;2023-03-23T17:09:17;17.00;58.30
69628;DHT22;56850;51.984;5.088;2023-03-23T17:11:44;17.00;58.40
69628;DHT22;56850;51.984;5.088;2023-03-23T17:14:11;16.90;58.30
69628;DHT22;56850;51.984;5.088;2023-03-23T17:16:38;16.90;58.10
69628;DHT22;56850;51.984;5.088;2023-03-23T17:19:05;16.90;58.10
69628;DHT22;56850;51.984;5.088;2023-03-23T17:21:33;16.80;58.20
69628;DHT22;56850;51.984;5.088;2023-03-23T17:24:01;16.80;58.30
69628;DHT22;56850;51.984;5.088;2023-03-23T17:26:28;16.80;58.40
69628;DHT22;56850;51.984;5.088;2023-03-23T17:28:55;16.70;58.60
69628;DHT22;56850;51.984;5.088;2023-03-23T17:31:22;16.70;58.90
69628;DHT22;56850;51.984;5.088;2023-03-23T17:33:49;16.70;59.10
69628;DHT22;56850;51.984;5.088;2023-03-23T17:36:18;16.60;59.30
69628;DHT22;56850;51.984;5.088;2023-03-23T17:38:45;16.60;59.60
69628;DHT22;56850;51.984;5.088;2023-03-23T17:41:12;16.60;59.70
69628;DHT22;56850;51.984;5.088;2023-03-23T17:43:40;16.60;59.90
69628;DHT22;56850;51.984;5.088;2023-03-23T17:46:09;16.60;60.10
69628;DHT22;56850;51.984;5.088;2023-03-23T17:48:36;16.50;60.30
69628;DHT22;56850;51.984;5.088;2023-03-23T17:51:04;16.50;60.50
69628;DHT22;56850;51.984;5.088;2023-03-23T17:53:33;16.50;60.70
69628;DHT22;56850;51.984;5.088;2023-03-23T17:56:02;16.50;60.90
69628;DHT22;56850;51.984;5.088;2023-03-23T17:58:30;16.40;61.00
69628;DHT22;56850;51.984;5.088;2023-03-23T18:00:57;16.40;61.20
69628;DHT22;56850;51.984;5.088;2023-03-23T18:03:24;16.40;61.30
69628;DHT22;56850;51.984;5.088;2023-03-23T18:05:58;16.40;61.40
69628;DHT22;56850;51.984;5.088;2023-03-23T18:08:25;16.30;61.70
69628;DHT22;56850;51.984;5.088;2023-03-23T18:10:54;16.30;61.80
69628;DHT22;56850;51.984;5.088;2023-03-23T18:13:23;16.30;62.10
69628;DHT22;56850;51.984;5.088;2023-03-23T18:15:53;16.20;62.30
69628;DHT22;56850;51.984;5.088;2023-03-23T18:18:21;16.20;62.50
69628;DHT22;56850;51.984;5.088;2023-03-23T18:20:57;16.20;62.70
69628;DHT22;56850;51.984;5.088;2023-03-23T18:23:24;16.20;62.80
69628;DHT22;56850;51.984;5.088;2023-03-23T18:25:52;16.10;63.20
69628;DHT22;56850;51.984;5.088;2023-03-23T18:28:21;16.10;63.30
69628;DHT22;56850;51.984;5.088;2023-03-23T18:30:48;16.10;63.60
69628;DHT22;56850;51.984;5.088;2023-03-23T18:33:17;16.00;64.10
69628;DHT22;56850;51.984;5.088;2023-03-23T18:35:46;16.00;64.30
69628;DHT22;56850;51.984;5.088;2023-03-23T18:38:14;15.90;64.70
69628;DHT22;56850;51.984;5.088;2023-03-23T18:40:43;15.90;64.90
69628;DHT22;56850;51.984;5.088;2023-03-23T18:43:10;15.90;65.00
69628;DHT22;56850;51.984;5.088;2023-03-23T18:45:38;15.90;65.20
69628;DHT22;56850;51.984;5.088;2023-03-23T18:48:06;15.90;65.20
69628;DHT22;56850;51.984;5.088;2023-03-23T18:50:33;15.90;65.30
69628;DHT22;56850;51.984;5.088;2023-03-23T18:53:00;15.80;65.50
69628;DHT22;56850;51.984;5.088;2023-03-23T18:55:27;15.80;65.70
69628;DHT22;56850;51.984;5.088;2023-03-23T18:57:54;15.80;65.80
69628;DHT22;56850;51.984;5.088;2023-03-23T19:00:21;15.80;65.90
69628;DHT22;56850;51.984;5.088;2023-03-23T19:02:48;15.70;66.00
69628;DHT22;56850;51.984;5.088;2023-03-23T19:05:18;15.70;66.10
69628;DHT22;56850;51.984;5.088;2023-03-23T19:07:45;15.70;66.20
69628;DHT22;56850;51.984;5.088;2023-03-23T19:10:12;15.80;66.20
69628;DHT22;56850;51.984;5.088;2023-03-23T19:12:39;15.70;66.30
69628;DHT22;56850;51.984;5.088;2023-03-23T19:15:07;15.70;66.30
69628;DHT22;56850;51.984;5.088;2023-03-23T19:17:35;15.70;66.40
69628;DHT22;56850;51.984;5.088;2023-03-23T19:20:03;15.70;66.50
69628;DHT22;56850;51.984;5.088;2023-03-23T19:22:31;15.70;66.60
69628;DHT22;56850;51.984;5.088;2023-03-23T19:24:58;15.70;66.70
69628;DHT22;56850;51.984;5.088;2023-03-23T19:27:26;15.70;66.80
69628;DHT22;56850;51.984;5.088;2023-03-23T19:29:53;15.60;66.90
69628;DHT22;56850;51.984;5.088;2023-03-23T19:32:20;15.60;67.10
69628;DHT22;56850;51.984;5.088;2023-03-23T19:34:47;15.60;67.20
69628;DHT22;56850;51.984;5.088;2023-03-23T19:37:17;15.60;67.30
69628;DHT22;56850;51.984;5.088;2023-03-23T19:39:44;15.60;67.40
69628;DHT22;56850;51.984;5.088;2023-03-23T19:42:12;15.60;67.60
69628;DHT22;56850;51.984;5.088;2023-03-23T19:44:42;15.50;67.70
69628;DHT22;56850;51.984;5.088;2023-03-23T19:47:09;15.50;67.80
69628;DHT22;56850;51.984;5.088;2023-03-23T19:49:39;15.50;67.90
69628;DHT22;56850;51.984;5.088;2023-03-23T19:52:06;15.40;68.10
69628;DHT22;56850;51.984;5.088;2023-03-23T19:54:39;15.40;68.30
69628;DHT22;56850;51.984;5.088;2023-03-23T19:57:07;15.40;68.70
69628;DHT22;56850;51.984;5.088;2023-03-23T19:59:36;15.30;68.90
69628;DHT22;56850;51.984;5.088;2023-03-23T20:02:04;15.30;69.20
69628;DHT22;56850;51.984;5.088;2023-03-23T20:04:31;15.20;69.50
69628;DHT22;56850;51.984;5.088;2023-03-23T20:06:58;15.20;69.70
69628;DHT22;56850;51.984;5.088;2023-03-23T20:09:26;15.20;70.00
69628;DHT22;56850;51.984;5.088;2023-03-23T20:11:53;15.10;70.10
69628;DHT22;56850;51.984;5.088;2023-03-23T20:14:20;15.10;70.20
69628;DHT22;56850;51.984;5.088;2023-03-23T20:16:47;15.10;70.40
69628;DHT22;56850;51.984;5.088;2023-03-23T20:19:14;15.10;70.50
69628;DHT22;56850;51.984;5.088;2023-03-23T20:21:42;15.10;70.70
69628;DHT22;56850;51.984;5.088;2023-03-23T20:24:09;15.00;70.80
69628;DHT22;56850;51.984;5.088;2023-03-23T20:26:39;15.00;71.00
69628;DHT22;56850;51.984;5.088;2023-03-23T20:29:06;14.90;71.10
69628;DHT22;56850;51.984;5.088;2023-03-23T20:31:36;14.90;71.30
69628;DHT22;56850;51.984;5.088;2023-03-23T20:34:07;14.90;71.40
69628;DHT22;56850;51.984;5.088;2023-03-23T20:36:37;14.90;71.60
69628;DHT22;56850;51.984;5.088;2023-03-23T20:39:09;14.90;71.70
69628;DHT22;56850;51.984;5.088;2023-03-23T20:41:37;14.80;71.80
69628;DHT22;56850;51.984;5.088;2023-03-23T20:44:08;14.80;71.90
69628;DHT22;56850;51.984;5.088;2023-03-23T20:46:44;14.90;71.90
69628;DHT22;56850;51.984;5.088;2023-03-23T20:49:12;14.90;72.00
69628;DHT22;56850;51.984;5.088;2023-03-23T20:51:39;14.80;72.10
69628;DHT22;56850;51.984;5.088;2023-03-23T20:54:06;14.80;72.20
69628;DHT22;56850;51.984;5.088;2023-03-23T20:56:33;14.80;72.30
69628;DHT22;56850;51.984;5.088;2023-03-23T20:59:00;14.80;72.40
69628;DHT22;56850;51.984;5.088;2023-03-23T21:01:28;14.70;72.70
69628;DHT22;56850;51.984;5.088;2023-03-23T21:03:56;14.70;72.80
69628;DHT22;56850;51.984;5.088;2023-03-23T21:06:23;14.70;72.90
69628;DHT22;56850;51.984;5.088;2023-03-23T21:08:55;14.70;73.00
69628;DHT22;56850;51.984;5.088;2023-03-23T21:11:25;14.60;73.10
69628;DHT22;56850;51.984;5.088;2023-03-23T21:13:52;14.60;73.30
69628;DHT22;56850;51.984;5.088;2023-03-23T21:16:19;14.60;73.50
69628;DHT22;56850;51.984;5.088;2023-03-23T21:18:47;14.60;73.50
69628;DHT22;56850;51.984;5.088;2023-03-23T21:21:14;14.60;73.60
69628;DHT22;56850;51.984;5.088;2023-03-23T21:23:47;14.60;73.60
69628;DHT22;56850;51.984;5.088;2023-03-23T21:26:20;14.60;73.70
69628;DHT22;56850;51.984;5.088;2023-03-23T21:28:49;14.60;73.90
69628;DHT22;56850;51.984;5.088;2023-03-23T21:31:17;14.60;74.10
69628;DHT22;56850;51.984;5.088;2023-03-23T21:33:44;14.50;74.10
69628;DHT22;56850;51.984;5.088;2023-03-23T21:36:11;14.50;74.30
69628;DHT22;56850;51.984;5.088;2023-03-23T21:38:38;14.50;74.30
69628;DHT22;56850;51.984;5.088;2023-03-23T21:41:08;14.50;74.30
69628;DHT22;56850;51.984;5.088;2023-03-23T21:43:36;14.50;74.30
69628;DHT22;56850;51.984;5.088;2023-03-23T21:46:05;14.50;74.40
69628;DHT22;56850;51.984;5.088;2023-03-23T21:48:35;14.40;74.50
69628;DHT22;56850;51.984;5.088;2023-03-23T21:51:10;14.40;74.50
69628;DHT22;56850;51.984;5.088;2023-03-23T21:53:38;14.40;74.50
69628;DHT22;56850;51.984;5.088;2023-03-23T21:56:09;14.40;74.50
69628;DHT22;56850;51.984;5.088;2023-03-23T21:58:37;14.40;74.70
69628;DHT22;56850;51.984;5.088;2023-03-23T22:01:04;14.40;74.70
69628;DHT22;56850;51.984;5.088;2023-03-23T22:03:31;14.40;74.70
69628;DHT22;56850;51.984;5.088;2023-03-23T22:06:14;14.40;74.70
69628;DHT22;56850;51.984;5.088;2023-03-23T22:08:43;14.30;74.80
69628;DHT22;56850;51.984;5.088;2023-03-23T22:11:17;14.30;74.70
69628;DHT22;56850;51.984;5.088;2023-03-23T22:13:45;14.30;74.80
69628;DHT22;56850;51.984;5.088;2023-03-23T22:16:16;14.30;74.80
69628;DHT22;56850;51.984;5.088;2023-03-23T22:18:45;14.20;74.90
69628;DHT22;56850;51.984;5.088;2023-03-23T22:21:13;14.30;75.00
69628;DHT22;56850;51.984;5.088;2023-03-23T22:23:41;14.20;74.90
69628;DHT22;56850;51.984;5.088;2023-03-23T22:26:09;14.20;75.00
69628;DHT22;56850;51.984;5.088;2023-03-23T22:28:36;14.20;74.90
69628;DHT22;56850;51.984;5.088;2023-03-23T22:31:16;14.20;74.90
69628;DHT22;56850;51.984;5.088;2023-03-23T22:33:45;14.20;74.90
69628;DHT22;56850;51.984;5.088;2023-03-23T22:36:14;14.10;75.00
69628;DHT22;56850;51.984;5.088;2023-03-23T22:38:44;14.10;75.00
69628;DHT22;56850;51.984;5.088;2023-03-23T22:41:21;14.10;75.20
69628;DHT22;56850;51.984;5.088;2023-03-23T22:43:49;14.10;75.20
69628;DHT22;56850;51.984;5.088;2023-03-23T22:46:16;14.10;75.30
69628;DHT22;56850;51.984;5.088;2023-03-23T22:48:44;14.10;75.30
69628;DHT22;56850;51.984;5.088;2023-03-23T22:51:13;14.10;75.40
69628;DHT22;56850;51.984;5.088;2023-03-23T22:53:40;14.10;75.70
69628;DHT22;56850;51.984;5.088;2023-03-23T22:56:09;14.00;75.70
69628;DHT22;56850;51.984;5.088;2023-03-23T22:58:36;14.00;75.80
69628;DHT22;56850;51.984;5.088;2023-03-23T23:01:07;14.00;75.90
69628;DHT22;56850;51.984;5.088;2023-03-23T23:03:34;14.00;76.10
69628;DHT22;56850;51.984;5.088;2023-03-23T23:06:02;14.00;76.20
69628;DHT22;56850;51.984;5.088;2023-03-23T23:08:30;14.00;76.30
69628;DHT22;56850;51.984;5.088;2023-03-23T23:11:00;14.00;76.30
69628;DHT22;56850;51.984;5.088;2023-03-23T23:13:28;14.00;76.40
69628;DHT22;56850;51.984;5.088;2023-03-23T23:15:59;13.90;76.50
69628;DHT22;56850;51.984;5.088;2023-03-23T23:18:28;13.90;76.70
69628;DHT22;56850;51.984;5.088;2023-03-23T23:20:57;13.90;76.80
69628;DHT22;56850;51.984;5.088;2023-03-23T23:23:26;13.90;77.00
69628;DHT22;56850;51.984;5.088;2023-03-23T23:25:54;13.90;77.00
69628;DHT22;56850;51.984;5.088;2023-03-23T23:28:23;13.90;77.10
69628;DHT22;56850;51.984;5.088;2023-03-23T23:30:50;13.90;77.30
69628;DHT22;56850;51.984;5.088;2023-03-23T23:33:18;13.80;77.50
69628;DHT22;56850;51.984;5.088;2023-03-23T23:35:45;13.80;77.70
69628;DHT22;56850;51.984;5.088;2023-03-23T23:38:14;13.80;77.80
69628;DHT22;56850;51.984;5.088;2023-03-23T23:40:43;13.80;78.00
69628;DHT22;56850;51.984;5.088;2023-03-23T23:43:15;13.80;78.10
69628;DHT22;56850;51.984;5.088;2023-03-23T23:45:42;13.70;78.30
69628;DHT22;56850;51.984;5.088;2023-03-23T23:48:10;13.70;78.40
69628;DHT22;56850;51.984;5.088;2023-03-23T23:50:38;13.70;78.40
69628;DHT22;56850;51.984;5.088;2023-03-23T23:53:05;13.70;78.50
69628;DHT22;56850;51.984;5.088;2023-03-23T23:55:31;13.70;78.50
69628;DHT22;56850;51.984;5.088;2023-03-23T23:57:58;13.70;78.60
